Latest Coastal Weather Observations for Maria Island

IDT60701

Issued at 1:21 pm EDT Thursday 11 February 2016 (issued every 10 minutes, with the page automatically refreshed every 10 minutes)

About coastal observations | Map of coastal stations | Coastal observations for TAS | Marine services | Other Formats
Station Details ID: 092124 Name: MARIA ISLAND (POINT LESUEUR) Lat: -42.66 Lon: 148.02 Height: 28.0 m
Data from the previous 72 hours. | See also: Recent months at Maria Island
Date/Time
EDT
Temp

°C
Wind Pressure Rain
since 9am
mm
Weather Cloud Vis
km
Sea
Height
m
Swell
Dir
 
Speed
knots
Gust
knots
hPa Trend Height
m
Period
s
Dir
11/01:00pm 20.3 SE 7 10 1015.8 - 0.0 - - - - - - -
11/12:30pm 19.6 S 8 9 1016.0 - 0.0 - - - - - - -
11/12:00pm 19.9 S 7 8 1016.2 - 0.0 - - - - - - -
11/11:30am 19.6 S 9 11 1016.3 - 0.0 - - - - - - -
11/11:00am 18.2 S 8 11 1016.4 - 0.0 - - - - - - -
11/10:30am 18.6 S 9 11 1016.3 - 0.0 - - - - - - -
11/10:00am 18.3 SSW 7 9 1016.3 - 0.0 - - - - - - -
11/09:30am 18.3 S 5 7 1016.1 - 0.0 - - - - - - -
11/09:00am 18.2 SSE 2 4 1015.8 - 0.0 - - - - - - -
11/08:30am 17.7 SE 3 4 1015.7 - 0.0 - - - - - - -
11/08:00am 16.7 SSW 3 5 1015.5 - 0.0 - - - - - - -
11/07:30am 16.5 S 4 5 1015.1 - 0.0 - - - - - - -
11/07:00am 16.3 SSW 4 6 1014.7 - 0.0 - - - - - - -
11/06:30am 16.2 SW 6 7 1014.5 - 0.0 - - - - - - -
11/06:00am 16.0 SW 5 7 1014.0 - 0.0 - - - - - - -
11/05:30am 16.2 SW 6 7 1013.8 - 0.0 - - - - - - -
11/05:00am 16.1 SW 6 8 1013.5 - 0.0 - - - - - - -
11/04:30am 16.3 SSW 8 11 1013.4 - 0.0 - - - - - - -
11/04:00am 16.3 SSW 9 11 1013.3 - 0.0 - - - - - - -
11/03:30am 16.3 S 10 12 1013.3 - 0.0 - - - - - - -
11/03:00am 16.2 SSW 12 13 1013.3 - 0.0 - - - - - - -
11/02:30am 16.3 SSW 12 14 1013.3 - 0.0 - - - - - - -
11/02:00am 16.2 SSW 13 15 1013.3 - 0.0 - - - - - - -
11/01:30am 16.5 SSW 15 17 1013.2 - 0.0 - - - - - - -
11/01:00am 16.9 SSW 13 15 1013.1 - 0.0 - - - - - - -
11/12:30am 17.7 SSW 14 17 1012.9 - 0.0 - - - - - - -
11/12:26am 17.6 SW 11 17 1012.9 - 0.0 - - - - - - -
11/12:00am 17.8 W 5 7 1012.6 - 0.0 - - - - - - -
 
Date/Time
EDT
Temp

°C
Wind Pressure Rain
since 9am
mm
Weather Cloud Vis
km
Sea
Height
m
Swell
Dir
 
Speed
knots
Gust
knots
hPa Trend Height
m
Period
s
Dir
10/11:30pm 17.6 WNW 5 6 1012.5 - 0.0 - - - - - - -
10/11:00pm 18.1 WNW 5 7 1012.6 - 0.0 - - - - - - -
10/10:30pm 18.6 N 5 6 1012.5 - 0.0 - - - - - - -
10/10:00pm 18.3 N 5 6 1012.3 - 0.0 - - - - - - -
10/09:30pm 19.1 N 4 5 1012.2 - 0.0 - - - - - - -
10/09:00pm 18.9 NNW 2 3 1012.0 - 0.0 - - - - - - -
10/08:30pm 19.2 CALM 0 1 1012.0 - 0.0 - - - - - - -
10/08:00pm 19.4 SE 3 5 1011.7 - 0.0 - - - - - - -
10/07:30pm 19.5 SE 6 7 1011.5 - 0.0 - - - - - - -
10/07:00pm 19.8 ESE 4 7 1011.1 - 0.0 - - - - - - -
10/06:30pm 20.2 ESE 3 7 1010.9 - 0.0 - - - - - - -
10/06:00pm 20.2 NNW 4 6 1010.8 - 0.0 - - - - - - -
10/05:30pm 20.2 ESE 7 9 1010.6 - 0.0 - - - - - - -
10/05:00pm 21.3 W 2 7 1010.6 - 0.0 - - - - - - -
10/04:30pm 21.4 ESE 6 8 1010.5 - 0.0 - - - - - - -
10/04:00pm 21.4 ESE 8 10 1010.6 - 0.0 - - - - - - -
10/03:30pm 21.8 ESE 9 12 1010.8 - 0.0 - - - - - - -
10/03:00pm 22.1 ESE 9 12 1010.9 - 0.0 - - - - - - -
10/02:30pm 20.8 ESE 11 13 1011.2 - 0.0 - - - - - - -
10/02:00pm 20.6 ESE 12 15 1011.2 - 0.0 - - - - - - -
10/01:30pm 20.8 ESE 11 13 1011.3 - 0.0 - - - - - - -
10/01:00pm 20.9 ESE 11 14 1011.5 - 0.0 - - - - - - -
10/12:30pm 21.6 SSW 1 4 1011.9 - 0.0 - - - - - - -
10/12:00pm 20.6 N 3 4 1012.3 - 0.0 - - - - - - -
10/11:30am 19.7 NNE 4 6 1012.6 - 0.0 - - - - - - -
10/11:00am 19.5 N 3 6 1012.8 - 0.0 - - - - - - -
10/10:30am 18.9 S 3 5 1013.0 - 0.0 - - - - - - -
10/10:00am 18.7 SSW 3 6 1013.1 - 0.0 - - - - - - -
10/09:30am 18.3 SSW 10 11 1013.2 - 0.0 - - - - - - -
10/09:00am 17.4 SSW 11 13 1013.4 - 0.0 - - - - - - -
10/08:30am 17.5 SSW 9 13 1013.1 - 0.0 - - - - - - -
10/08:00am 17.0 WNW 4 6 1012.9 - 0.0 - - - - - - -
10/07:30am 16.6 W 6 7 1012.9 - 0.0 - - - - - - -
10/07:00am 16.1 W 4 5 1012.7 - 0.0 - - - - - - -
10/06:30am 16.0 W 3 4 1012.4 - 0.0 - - - - - - -
10/06:00am 16.2 WSW 3 3 1012.5 - 0.0 - - - - - - -
10/05:30am 16.2 W 3 3 1012.4 - 0.0 - - - - - - -
10/05:00am 16.4 W 2 3 1012.4 - 0.0 - - - - - - -
10/04:30am 16.1 NE 1 2 1012.5 - 0.0 - - - - - - -
10/04:00am 16.2 ENE 2 3 1012.7 - 0.0 - - - - - - -
10/03:30am 15.9 NE 3 4 1012.6 - 0.0 - - - - - - -
10/03:00am 16.9 E 1 3 1012.8 - 0.0 - - - - - - -
10/02:30am 17.1 SSE 6 7 1013.2 - 0.0 - - - - - - -
10/02:00am 16.9 SSE 4 5 1013.4 - 0.0 - - - - - - -
10/01:30am 17.4 SSW 6 7 1013.7 - 0.0 - - - - - - -
10/01:00am 17.4 S 7 9 1014.0 - 0.0 - - - - - - -
10/12:30am 17.4 S 9 10 1014.0 - 0.0 - - - - - - -
10/12:00am 17.8 S 11 13 1014.2 - 0.0 - - - - - - -
 
Date/Time
EDT
Temp

°C
Wind Pressure Rain
since 9am
mm
Weather Cloud Vis
km
Sea
Height
m
Swell
Dir
 
Speed
knots
Gust
knots
hPa Trend Height
m
Period
s
Dir
09/11:30pm 17.9 S 10 14 1014.2 - 0.0 - - - - - - -
09/11:00pm 17.9 S 10 12 1014.3 - 0.0 - - - - - - -
09/10:30pm 18.1 S 12 16 1014.6 - 0.0 - - - - - - -
09/10:00pm 18.6 S 17 20 1014.6 - 0.0 - - - - - - -
09/09:30pm 19.4 SSW 19 22 1014.2 - 0.0 - - - - - - -
09/09:00pm 19.8 SSW 11 13 1013.8 - 0.0 - - - - - - -
09/08:30pm 20.4 CALM 0 3 1013.8 - 0.0 - - - - - - -
09/08:00pm 20.8 S 3 4 1013.8 - 0.0 - - - - - - -
09/07:30pm 20.9 S 3 5 1013.8 - 0.0 - - - - - - -
09/07:00pm 21.4 WSW 5 5 1013.9 - 0.0 - - - - - - -
09/06:30pm 21.9 SW 4 6 1014.0 - 0.0 - - - - - - -
09/06:00pm 21.4 WNW 4 5 1014.3 - 0.0 - - - - - - -
09/05:30pm 21.9 NW 5 6 1014.8 - 0.0 - - - - - - -
09/05:00pm 21.7 NNW 4 6 1015.2 - 0.0 - - - - - - -
09/04:30pm 21.5 N 5 8 1015.6 - 0.0 - - - - - - -
09/04:00pm 21.2 N 9 11 1016.1 - 0.0 - - - - - - -
09/03:30pm 21.9 N 14 18 1016.1 - 0.0 - - - - - - -
09/03:00pm 21.9 N 14 19 1016.6 - 0.0 - - - - - - -
09/02:30pm 22.0 NNE 11 14 1017.2 - 0.0 - - - - - - -
09/02:00pm 21.5 N 13 19 1017.5 - 0.0 - - - - - - -
09/01:30pm 21.6 NNE 14 19 1018.0 - 0.0 - - - - - - -
09/01:00pm 21.7 N 13 17 1018.4 - 0.0 - - - - - - -
09/12:30pm 21.4 N 15 17 1018.9 - 0.0 - - - - - - -
09/12:00pm 21.4 N 11 13 1019.6 - 0.0 - - - - - - -
09/11:30am 20.0 N 8 9 1020.1 - 0.0 - - - - - - -
09/11:00am 19.5 N 7 8 1020.5 - 0.0 - - - - - - -
09/10:30am 18.8 N 5 6 1020.8 - 0.0 - - - - - - -
09/10:00am 18.4 N 4 5 1021.0 - 0.0 - - - - - - -
09/09:30am 18.1 N 5 6 1021.1 - 0.0 - - - - - - -
09/09:00am 17.7 NW 4 5 1021.2 - 0.0 - - - - - - -
09/08:30am 17.1 NW 4 6 1021.3 - 0.0 - - - - - - -
09/08:00am 17.2 N 4 6 1021.2 - 0.0 - - - - - - -
09/07:30am 16.2 NW 7 9 1021.1 - 0.0 - - - - - - -
09/07:00am 15.7 WNW 4 5 1021.0 - 0.0 - - - - - - -
09/06:30am 16.3 W 8 9 1020.7 - 0.0 - - - - - - -
09/06:00am 16.4 W 11 13 1020.3 - 0.0 - - - - - - -
09/05:30am 16.3 WSW 8 11 1020.3 - 0.0 - - - - - - -
09/05:00am 15.8 WSW 7 8 1020.3 - 0.0 - - - - - - -
09/04:30am 15.5 W 5 7 1020.3 - 0.0 - - - - - - -
09/04:00am 16.0 WNW 3 6 1020.3 - 0.0 - - - - - - -
09/03:30am 16.2 WNW 3 4 1020.3 - 0.0 - - - - - - -
09/03:00am 16.2 W 2 4 1020.2 - 0.0 - - - - - - -
09/02:30am 17.1 WSW 3 5 1020.2 - 0.0 - - - - - - -
09/02:00am 16.5 W 5 7 1020.2 - 0.0 - - - - - - -
09/01:30am 17.2 W 5 7 1020.4 - 0.0 - - - - - - -
09/01:00am 18.0 W 10 13 1020.4 - 0.0 - - - - - - -
09/12:30am 18.3 W 12 14 1020.4 - 0.0 - - - - - - -
09/12:00am 18.6 W 8 10 1020.4 - 0.0 - - - - - - -
 
Date/Time
EDT
Temp

°C
Wind Pressure Rain
since 9am
mm
Weather Cloud Vis
km
Sea
Height
m
Swell
Dir
 
Speed
knots
Gust
knots
hPa Trend Height
m
Period
s
Dir
08/11:30pm 18.9 SW 11 13 1020.6 - 0.0 - - - - - - -
08/11:00pm 18.9 SW 11 14 1020.6 - 0.0 - - - - - - -
08/10:30pm 19.3 SW 5 9 1020.6 - 0.0 - - - - - - -
08/10:00pm 19.4 WNW 7 12 1020.5 - 0.0 - - - - - - -
08/09:30pm 19.5 NNW 8 9 1020.2 - 0.0 - - - - - - -
08/09:00pm 19.3 NNW 9 10 1019.8 - 0.0 - - - - - - -
08/08:30pm 19.3 NNW 9 11 1019.2 - 0.0 - - - - - - -
08/08:00pm 19.8 N 5 7 1018.9 - 0.0 - - - - - - -
08/07:30pm 19.9 WNW 3 4 1018.5 - 0.0 - - - - - - -
08/07:00pm 20.2 ENE 3 6 1018.3 - 0.0 - - - - - - -
08/06:30pm 20.4 E 7 9 1017.9 - 0.0 - - - - - - -
08/06:00pm 20.7 E 8 12 1017.8 - 0.0 - - - - - - -
08/05:30pm 20.5 E 10 11 1017.5 - 0.0 - - - - - - -
08/05:00pm 20.9 E 10 12 1017.2 - 0.0 - - - - - - -
08/04:30pm 20.7 E 10 13 1017.1 - 0.0 - - - - - - -
08/04:00pm 21.0 E 11 14 1017.1 - 0.0 - - - - - - -
08/03:30pm 21.1 ESE 13 16 1017.2 - 0.0 - - - - - - -
08/03:00pm 20.7 E 16 20 1016.9 - 0.0 - - - - - - -
08/02:30pm 21.6 E 15 19 1016.9 - 0.0 - - - - - - -
08/02:00pm 22.0 E 13 18 1017.0 - 0.0 - - - - - - -
08/01:30pm 22.8 S 12 13 1017.1 - 0.0 - - - - - - -

Other Formats:

Comma delimited format used in spreadsheet applications
http://www.bom.gov.au/fwo/IDT60701/IDT60701.95988.axf

JavaScript Object Notation format (JSON) in row-major order
http://www.bom.gov.au/fwo/IDT60701/IDT60701.95988.json